sensor_id;sensor_type;location;lat;lon;timestamp;temperature;humidity
47382;DHT22;33128;51.580;5.170;2022-09-28T00:01:44;12.90;99.90
47382;DHT22;33128;51.580;5.170;2022-09-28T00:04:10;12.90;99.90
47382;DHT22;33128;51.580;5.170;2022-09-28T00:06:37;12.90;99.90
47382;DHT22;33128;51.580;5.170;2022-09-28T00:09:02;12.90;99.90
47382;DHT22;33128;51.580;5.170;2022-09-28T00:11:28;12.90;99.90
47382;DHT22;33128;51.580;5.170;2022-09-28T00:13:55;12.90;99.90
47382;DHT22;33128;51.580;5.170;2022-09-28T00:16:23;12.90;99.90
47382;DHT22;33128;51.580;5.170;2022-09-28T00:18:49;12.90;99.90
47382;DHT22;33128;51.580;5.170;2022-09-28T00:21:19;12.90;99.90
47382;DHT22;33128;51.580;5.170;2022-09-28T00:23:51;12.90;99.90
47382;DHT22;33128;51.580;5.170;2022-09-28T00:26:36;12.90;99.90
47382;DHT22;33128;51.580;5.170;2022-09-28T00:29:02;12.90;99.90
47382;DHT22;33128;51.580;5.170;2022-09-28T00:31:28;13.00;99.90
47382;DHT22;33128;51.580;5.170;2022-09-28T00:33:55;13.00;99.90
47382;DHT22;33128;51.580;5.170;2022-09-28T00:36:22;13.00;99.90
47382;DHT22;33128;51.580;5.170;2022-09-28T00:38:48;12.90;99.90
47382;DHT22;33128;51.580;5.170;2022-09-28T00:41:14;12.90;99.90
47382;DHT22;33128;51.580;5.170;2022-09-28T00:43:39;13.00;99.90
47382;DHT22;33128;51.580;5.170;2022-09-28T00:46:08;12.90;99.90
47382;DHT22;33128;51.580;5.170;2022-09-28T00:48:35;12.90;99.90
47382;DHT22;33128;51.580;5.170;2022-09-28T00:51:04;13.00;99.90
47382;DHT22;33128;51.580;5.170;2022-09-28T00:53:31;13.00;99.90
47382;DHT22;33128;51.580;5.170;2022-09-28T00:56:03;13.00;99.90
47382;DHT22;33128;51.580;5.170;2022-09-28T00:58:37;13.00;99.90
47382;DHT22;33128;51.580;5.170;2022-09-28T01:01:03;12.90;99.90
47382;DHT22;33128;51.580;5.170;2022-09-28T01:03:29;13.00;99.90
47382;DHT22;33128;51.580;5.170;2022-09-28T01:05:55;13.00;99.90
47382;DHT22;33128;51.580;5.170;2022-09-28T01:08:22;13.00;99.90
47382;DHT22;33128;51.580;5.170;2022-09-28T01:10:48;13.00;99.90
47382;DHT22;33128;51.580;5.170;2022-09-28T01:13:15;13.00;99.90
47382;DHT22;33128;51.580;5.170;2022-09-28T01:15:48;13.00;99.90
47382;DHT22;33128;51.580;5.170;2022-09-28T01:18:18;13.00;99.90
47382;DHT22;33128;51.580;5.170;2022-09-28T01:21:20;13.00;99.90
47382;DHT22;33128;51.580;5.170;2022-09-28T01:28:41;13.00;99.90
47382;DHT22;33128;51.580;5.170;2022-09-28T01:31:12;13.00;99.90
47382;DHT22;33128;51.580;5.170;2022-09-28T01:33:44;13.00;99.90
47382;DHT22;33128;51.580;5.170;2022-09-28T01:36:12;13.00;99.90
47382;DHT22;33128;51.580;5.170;2022-09-28T01:38:46;13.00;99.90
47382;DHT22;33128;51.580;5.170;2022-09-28T01:41:13;13.00;99.90
47382;DHT22;33128;51.580;5.170;2022-09-28T01:43:41;13.00;99.90
47382;DHT22;33128;51.580;5.170;2022-09-28T01:46:13;13.00;99.90
47382;DHT22;33128;51.580;5.170;2022-09-28T01:48:55;13.00;99.90
47382;DHT22;33128;51.580;5.170;2022-09-28T01:51:24;13.00;99.90
47382;DHT22;33128;51.580;5.170;2022-09-28T01:53:52;13.00;99.90
47382;DHT22;33128;51.580;5.170;2022-09-28T01:56:21;13.00;99.90
47382;DHT22;33128;51.580;5.170;2022-09-28T01:58:49;13.00;99.90
47382;DHT22;33128;51.580;5.170;2022-09-28T02:01:18;13.00;99.90
47382;DHT22;33128;51.580;5.170;2022-09-28T02:03:49;13.00;99.90
47382;DHT22;33128;51.580;5.170;2022-09-28T02:06:18;13.00;99.90
47382;DHT22;33128;51.580;5.170;2022-09-28T02:08:50;12.40;99.90
47382;DHT22;33128;51.580;5.170;2022-09-28T02:11:18;11.60;99.90
47382;DHT22;33128;51.580;5.170;2022-09-28T02:16:18;11.10;99.90
47382;DHT22;33128;51.580;5.170;2022-09-28T02:18:45;10.90;99.90
47382;DHT22;33128;51.580;5.170;2022-09-28T02:21:28;10.80;99.90
47382;DHT22;33128;51.580;5.170;2022-09-28T02:24:01;10.70;99.90
47382;DHT22;33128;51.580;5.170;2022-09-28T02:26:30;10.70;99.90
47382;DHT22;33128;51.580;5.170;2022-09-28T02:28:59;10.70;99.90
47382;DHT22;33128;51.580;5.170;2022-09-28T02:31:25;10.50;99.90
47382;DHT22;33128;51.580;5.170;2022-09-28T02:33:51;10.40;99.90
47382;DHT22;33128;51.580;5.170;2022-09-28T02:36:18;10.40;99.90
47382;DHT22;33128;51.580;5.170;2022-09-28T02:38:43;10.40;99.90
47382;DHT22;33128;51.580;5.170;2022-09-28T02:43:42;10.20;99.90
47382;DHT22;33128;51.580;5.170;2022-09-28T02:46:47;10.10;99.90
47382;DHT22;33128;51.580;5.170;2022-09-28T02:56:59;10.00;99.90
47382;DHT22;33128;51.580;5.170;2022-09-28T02:59:34;9.90;99.90
47382;DHT22;33128;51.580;5.170;2022-09-28T03:02:05;9.90;99.90
47382;DHT22;33128;51.580;5.170;2022-09-28T03:04:38;10.00;99.90
47382;DHT22;33128;51.580;5.170;2022-09-28T03:07:12;10.00;99.90
47382;DHT22;33128;51.580;5.170;2022-09-28T03:12:32;10.00;99.90
47382;DHT22;33128;51.580;5.170;2022-09-28T03:17:58;10.00;99.90
47382;DHT22;33128;51.580;5.170;2022-09-28T03:20:24;10.00;99.90
47382;DHT22;33128;51.580;5.170;2022-09-28T03:22:50;10.00;99.90
47382;DHT22;33128;51.580;5.170;2022-09-28T03:25:15;9.90;99.90
47382;DHT22;33128;51.580;5.170;2022-09-28T03:27:41;9.90;99.90
47382;DHT22;33128;51.580;5.170;2022-09-28T03:30:07;9.90;99.90
47382;DHT22;33128;51.580;5.170;2022-09-28T03:32:33;9.90;99.90
47382;DHT22;33128;51.580;5.170;2022-09-28T03:34:58;9.80;99.90
47382;DHT22;33128;51.580;5.170;2022-09-28T03:37:23;9.70;99.90
47382;DHT22;33128;51.580;5.170;2022-09-28T03:39:50;9.80;99.90
47382;DHT22;33128;51.580;5.170;2022-09-28T03:42:15;9.80;99.90
47382;DHT22;33128;51.580;5.170;2022-09-28T03:44:41;9.80;99.90
47382;DHT22;33128;51.580;5.170;2022-09-28T03:47:06;9.80;99.90
47382;DHT22;33128;51.580;5.170;2022-09-28T03:49:33;9.80;99.90
47382;DHT22;33128;51.580;5.170;2022-09-28T03:51:58;9.80;99.90
47382;DHT22;33128;51.580;5.170;2022-09-28T03:54:24;9.80;99.90
47382;DHT22;33128;51.580;5.170;2022-09-28T03:56:49;9.80;99.90
47382;DHT22;33128;51.580;5.170;2022-09-28T03:59:16;9.80;99.90
47382;DHT22;33128;51.580;5.170;2022-09-28T04:01:42;9.80;99.90
47382;DHT22;33128;51.580;5.170;2022-09-28T04:04:10;9.90;99.90
47382;DHT22;33128;51.580;5.170;2022-09-28T04:06:35;9.90;99.90
47382;DHT22;33128;51.580;5.170;2022-09-28T04:09:01;9.90;99.90
47382;DHT22;33128;51.580;5.170;2022-09-28T04:11:26;9.80;99.90
47382;DHT22;33128;51.580;5.170;2022-09-28T04:13:52;9.90;99.90
47382;DHT22;33128;51.580;5.170;2022-09-28T04:16:17;9.80;99.90
47382;DHT22;33128;51.580;5.170;2022-09-28T04:18:43;9.80;99.90
47382;DHT22;33128;51.580;5.170;2022-09-28T04:21:09;9.70;99.90
47382;DHT22;33128;51.580;5.170;2022-09-28T04:23:36;9.70;99.90
47382;DHT22;33128;51.580;5.170;2022-09-28T04:26:02;9.70;99.90
47382;DHT22;33128;51.580;5.170;2022-09-28T04:28:28;9.70;99.90
47382;DHT22;33128;51.580;5.170;2022-09-28T04:31:16;9.70;99.90
47382;DHT22;33128;51.580;5.170;2022-09-28T04:33:42;9.60;99.90
47382;DHT22;33128;51.580;5.170;2022-09-28T04:36:11;9.60;99.90
47382;DHT22;33128;51.580;5.170;2022-09-28T04:38:37;9.60;99.90
47382;DHT22;33128;51.580;5.170;2022-09-28T04:41:02;9.60;99.90
47382;DHT22;33128;51.580;5.170;2022-09-28T04:43:28;9.60;99.90
47382;DHT22;33128;51.580;5.170;2022-09-28T04:45:57;9.70;99.90
47382;DHT22;33128;51.580;5.170;2022-09-28T04:48:23;9.60;99.90
47382;DHT22;33128;51.580;5.170;2022-09-28T04:50:52;9.60;99.90
47382;DHT22;33128;51.580;5.170;2022-09-28T04:53:18;9.50;99.90
47382;DHT22;33128;51.580;5.170;2022-09-28T04:55:43;9.50;99.90
47382;DHT22;33128;51.580;5.170;2022-09-28T04:58:09;9.50;99.90
47382;DHT22;33128;51.580;5.170;2022-09-28T05:00:35;9.50;99.90
47382;DHT22;33128;51.580;5.170;2022-09-28T05:03:00;9.50;99.90
47382;DHT22;33128;51.580;5.170;2022-09-28T05:05:26;9.50;99.90
47382;DHT22;33128;51.580;5.170;2022-09-28T05:07:51;9.40;99.90
47382;DHT22;33128;51.580;5.170;2022-09-28T05:10:17;9.40;99.90
47382;DHT22;33128;51.580;5.170;2022-09-28T05:12:44;9.40;99.90
47382;DHT22;33128;51.580;5.170;2022-09-28T05:15:09;9.40;99.90
47382;DHT22;33128;51.580;5.170;2022-09-28T05:17:38;9.30;99.90
47382;DHT22;33128;51.580;5.170;2022-09-28T05:20:03;9.30;99.90
47382;DHT22;33128;51.580;5.170;2022-09-28T05:22:29;9.20;99.90
47382;DHT22;33128;51.580;5.170;2022-09-28T05:24:55;9.20;99.90
47382;DHT22;33128;51.580;5.170;2022-09-28T05:27:22;9.20;99.90
47382;DHT22;33128;51.580;5.170;2022-09-28T05:29:48;9.20;99.90
47382;DHT22;33128;51.580;5.170;2022-09-28T05:32:13;9.20;99.90
47382;DHT22;33128;51.580;5.170;2022-09-28T05:34:41;9.20;99.90
47382;DHT22;33128;51.580;5.170;2022-09-28T05:37:06;9.40;99.90
47382;DHT22;33128;51.580;5.170;2022-09-28T05:39:32;9.60;99.90
47382;DHT22;33128;51.580;5.170;2022-09-28T05:41:57;9.70;99.90
47382;DHT22;33128;51.580;5.170;2022-09-28T05:44:23;9.70;99.90
47382;DHT22;33128;51.580;5.170;2022-09-28T05:46:51;9.60;99.90
47382;DHT22;33128;51.580;5.170;2022-09-28T05:49:17;9.70;99.90
47382;DHT22;33128;51.580;5.170;2022-09-28T05:51:42;9.60;99.90
47382;DHT22;33128;51.580;5.170;2022-09-28T05:54:08;9.60;99.90
47382;DHT22;33128;51.580;5.170;2022-09-28T05:56:33;9.70;99.90
47382;DHT22;33128;51.580;5.170;2022-09-28T05:58:59;9.70;99.90
47382;DHT22;33128;51.580;5.170;2022-09-28T06:01:24;9.70;99.90
47382;DHT22;33128;51.580;5.170;2022-09-28T06:03:50;9.70;99.90
47382;DHT22;33128;51.580;5.170;2022-09-28T06:06:16;9.60;99.90
47382;DHT22;33128;51.580;5.170;2022-09-28T06:08:41;9.80;99.90
47382;DHT22;33128;51.580;5.170;2022-09-28T06:11:10;10.00;99.90
47382;DHT22;33128;51.580;5.170;2022-09-28T06:13:36;9.80;99.90
47382;DHT22;33128;51.580;5.170;2022-09-28T06:16:04;9.90;99.90
47382;DHT22;33128;51.580;5.170;2022-09-28T06:18:31;10.00;99.90
47382;DHT22;33128;51.580;5.170;2022-09-28T06:20:57;9.80;99.90
47382;DHT22;33128;51.580;5.170;2022-09-28T06:23:23;9.90;99.90
47382;DHT22;33128;51.580;5.170;2022-09-28T06:25:48;10.10;99.90
47382;DHT22;33128;51.580;5.170;2022-09-28T06:28:14;10.10;99.90
47382;DHT22;33128;51.580;5.170;2022-09-28T06:30:42;10.00;99.90
47382;DHT22;33128;51.580;5.170;2022-09-28T06:33:09;10.30;99.90
47382;DHT22;33128;51.580;5.170;2022-09-28T06:35:35;10.30;99.90
47382;DHT22;33128;51.580;5.170;2022-09-28T06:38:01;10.30;99.90
47382;DHT22;33128;51.580;5.170;2022-09-28T06:40:26;10.30;99.90
47382;DHT22;33128;51.580;5.170;2022-09-28T06:42:56;10.30;99.90
47382;DHT22;33128;51.580;5.170;2022-09-28T06:45:22;10.30;99.90
47382;DHT22;33128;51.580;5.170;2022-09-28T06:47:56;10.40;99.90
47382;DHT22;33128;51.580;5.170;2022-09-28T06:50:23;10.30;99.90
47382;DHT22;33128;51.580;5.170;2022-09-28T06:52:52;10.30;99.90
47382;DHT22;33128;51.580;5.170;2022-09-28T06:55:18;10.20;99.90
47382;DHT22;33128;51.580;5.170;2022-09-28T06:57:44;10.20;99.90
47382;DHT22;33128;51.580;5.170;2022-09-28T07:00:09;10.30;99.90
47382;DHT22;33128;51.580;5.170;2022-09-28T07:02:35;10.40;99.90
47382;DHT22;33128;51.580;5.170;2022-09-28T07:05:01;10.50;99.90
47382;DHT22;33128;51.580;5.170;2022-09-28T07:07:27;10.30;99.90
47382;DHT22;33128;51.580;5.170;2022-09-28T07:09:53;10.40;99.90
47382;DHT22;33128;51.580;5.170;2022-09-28T07:12:19;10.60;99.90
47382;DHT22;33128;51.580;5.170;2022-09-28T07:14:45;10.60;99.90
47382;DHT22;33128;51.580;5.170;2022-09-28T07:17:11;10.70;99.90
47382;DHT22;33128;51.580;5.170;2022-09-28T07:19:36;10.60;99.90
47382;DHT22;33128;51.580;5.170;2022-09-28T07:22:02;10.70;99.90
47382;DHT22;33128;51.580;5.170;2022-09-28T07:24:27;10.80;99.90
47382;DHT22;33128;51.580;5.170;2022-09-28T07:26:54;10.70;99.90
47382;DHT22;33128;51.580;5.170;2022-09-28T07:29:20;10.80;99.90
47382;DHT22;33128;51.580;5.170;2022-09-28T07:31:45;10.90;99.90
47382;DHT22;33128;51.580;5.170;2022-09-28T07:34:11;11.00;99.90
47382;DHT22;33128;51.580;5.170;2022-09-28T07:36:37;11.00;99.90
47382;DHT22;33128;51.580;5.170;2022-09-28T07:39:03;11.00;99.90
47382;DHT22;33128;51.580;5.170;2022-09-28T07:41:29;11.10;99.90
47382;DHT22;33128;51.580;5.170;2022-09-28T07:44:00;11.10;99.90
47382;DHT22;33128;51.580;5.170;2022-09-28T07:46:32;11.10;99.90
47382;DHT22;33128;51.580;5.170;2022-09-28T07:48:58;11.20;99.90
47382;DHT22;33128;51.580;5.170;2022-09-28T07:51:23;11.20;99.90
47382;DHT22;33128;51.580;5.170;2022-09-28T07:53:49;11.30;99.90
47382;DHT22;33128;51.580;5.170;2022-09-28T07:56:14;11.30;99.90
47382;DHT22;33128;51.580;5.170;2022-09-28T07:58:45;11.40;99.90
47382;DHT22;33128;51.580;5.170;2022-09-28T08:01:10;11.40;99.90
47382;DHT22;33128;51.580;5.170;2022-09-28T08:03:39;11.50;99.90
47382;DHT22;33128;51.580;5.170;2022-09-28T08:06:05;11.60;99.90
47382;DHT22;33128;51.580;5.170;2022-09-28T08:08:40;11.60;99.90
47382;DHT22;33128;51.580;5.170;2022-09-28T08:11:13;11.60;99.90
47382;DHT22;33128;51.580;5.170;2022-09-28T08:13:39;11.60;99.90
47382;DHT22;33128;51.580;5.170;2022-09-28T08:16:05;11.70;99.90
47382;DHT22;33128;51.580;5.170;2022-09-28T08:18:33;11.70;99.90
47382;DHT22;33128;51.580;5.170;2022-09-28T08:20:59;11.80;99.90
47382;DHT22;33128;51.580;5.170;2022-09-28T08:23:46;11.80;99.90
47382;DHT22;33128;51.580;5.170;2022-09-28T08:26:12;11.90;99.90
47382;DHT22;33128;51.580;5.170;2022-09-28T08:28:37;12.00;99.90
47382;DHT22;33128;51.580;5.170;2022-09-28T08:31:03;12.00;99.90
47382;DHT22;33128;51.580;5.170;2022-09-28T08:33:32;12.00;99.90
47382;DHT22;33128;51.580;5.170;2022-09-28T08:35:58;11.90;99.90
47382;DHT22;33128;51.580;5.170;2022-09-28T08:38:24;12.00;99.90
47382;DHT22;33128;51.580;5.170;2022-09-28T08:46:03;12.20;99.90
47382;DHT22;33128;51.580;5.170;2022-09-28T08:48:34;12.30;99.90
47382;DHT22;33128;51.580;5.170;2022-09-28T08:54:04;12.40;99.90
47382;DHT22;33128;51.580;5.170;2022-09-28T08:59:17;12.50;99.90
47382;DHT22;33128;51.580;5.170;2022-09-28T09:01:46;12.50;99.90
47382;DHT22;33128;51.580;5.170;2022-09-28T09:04:12;12.50;99.90
47382;DHT22;33128;51.580;5.170;2022-09-28T09:09:22;12.50;99.90
47382;DHT22;33128;51.580;5.170;2022-09-28T09:14:50;12.70;99.90
47382;DHT22;33128;51.580;5.170;2022-09-28T09:20:10;12.80;99.90
47382;DHT22;33128;51.580;5.170;2022-09-28T09:22:38;12.80;99.90
47382;DHT22;33128;51.580;5.170;2022-09-28T09:30:09;13.00;99.90
47382;DHT22;33128;51.580;5.170;2022-09-28T09:32:44;13.00;99.90
47382;DHT22;33128;51.580;5.170;2022-09-28T09:48:16;13.30;99.90
47382;DHT22;33128;51.580;5.170;2022-09-28T09:50:49;13.40;99.90
47382;DHT22;33128;51.580;5.170;2022-09-28T09:55:54;13.60;99.90
47382;DHT22;33128;51.580;5.170;2022-09-28T10:00:58;13.60;99.90
47382;DHT22;33128;51.580;5.170;2022-09-28T10:03:27;13.60;99.90
47382;DHT22;33128;51.580;5.170;2022-09-28T10:05:57;13.60;99.90
47382;DHT22;33128;51.580;5.170;2022-09-28T10:08:23;13.70;99.90
47382;DHT22;33128;51.580;5.170;2022-09-28T10:13:15;13.90;99.90
47382;DHT22;33128;51.580;5.170;2022-09-28T10:15:41;14.00;99.90
47382;DHT22;33128;51.580;5.170;2022-09-28T10:18:09;14.10;99.90
47382;DHT22;33128;51.580;5.170;2022-09-28T10:20:36;14.10;99.90
47382;DHT22;33128;51.580;5.170;2022-09-28T10:23:03;14.00;99.90
47382;DHT22;33128;51.580;5.170;2022-09-28T10:25:30;13.90;99.90
47382;DHT22;33128;51.580;5.170;2022-09-28T10:27:57;13.80;99.90
47382;DHT22;33128;51.580;5.170;2022-09-28T10:30:24;13.90;99.90
47382;DHT22;33128;51.580;5.170;2022-09-28T10:32:51;14.20;99.90
47382;DHT22;33128;51.580;5.170;2022-09-28T10:37:53;14.40;99.90
47382;DHT22;33128;51.580;5.170;2022-09-28T10:40:30;14.40;99.90
47382;DHT22;33128;51.580;5.170;2022-09-28T10:43:00;14.50;99.90
47382;DHT22;33128;51.580;5.170;2022-09-28T10:45:32;14.50;99.90
47382;DHT22;33128;51.580;5.170;2022-09-28T10:47:58;14.40;99.90
47382;DHT22;33128;51.580;5.170;2022-09-28T10:50:26;14.50;99.90
47382;DHT22;33128;51.580;5.170;2022-09-28T10:52:52;14.40;99.90
47382;DHT22;33128;51.580;5.170;2022-09-28T10:55:21;14.30;99.90
47382;DHT22;33128;51.580;5.170;2022-09-28T10:57:48;14.30;99.90
47382;DHT22;33128;51.580;5.170;2022-09-28T11:00:59;14.20;99.90
47382;DHT22;33128;51.580;5.170;2022-09-28T11:03:00;14.30;99.90
47382;DHT22;33128;51.580;5.170;2022-09-28T11:05:26;14.40;99.90
47382;DHT22;33128;51.580;5.170;2022-09-28T11:07:57;14.60;99.90
47382;DHT22;33128;51.580;5.170;2022-09-28T11:10:29;14.80;99.90
47382;DHT22;33128;51.580;5.170;2022-09-28T11:12:54;14.80;99.90
47382;DHT22;33128;51.580;5.170;2022-09-28T11:15:24;14.80;99.90
47382;DHT22;33128;51.580;5.170;2022-09-28T11:17:54;14.80;99.90
47382;DHT22;33128;51.580;5.170;2022-09-28T11:22:57;14.90;99.90
47382;DHT22;33128;51.580;5.170;2022-09-28T11:25:25;14.90;99.90
47382;DHT22;33128;51.580;5.170;2022-09-28T11:32:45;14.60;99.90
47382;DHT22;33128;51.580;5.170;2022-09-28T11:35:19;14.60;99.90
47382;DHT22;33128;51.580;5.170;2022-09-28T11:40:42;14.60;99.90
47382;DHT22;33128;51.580;5.170;2022-09-28T11:48:22;14.70;99.90
47382;DHT22;33128;51.580;5.170;2022-09-28T11:51:01;14.70;99.90
47382;DHT22;33128;51.580;5.170;2022-09-28T11:53:28;14.60;99.90
47382;DHT22;33128;51.580;5.170;2022-09-28T11:56:01;14.70;99.90
47382;DHT22;33128;51.580;5.170;2022-09-28T11:58:29;14.90;99.90
47382;DHT22;33128;51.580;5.170;2022-09-28T12:01:03;15.00;99.90
47382;DHT22;33128;51.580;5.170;2022-09-28T12:03:37;15.20;99.90
47382;DHT22;33128;51.580;5.170;2022-09-28T12:06:08;15.40;99.90
47382;DHT22;33128;51.580;5.170;2022-09-28T12:08:40;15.60;99.90
47382;DHT22;33128;51.580;5.170;2022-09-28T12:11:14;15.70;99.90
47382;DHT22;33128;51.580;5.170;2022-09-28T12:13:42;15.80;99.90
47382;DHT22;33128;51.580;5.170;2022-09-28T12:16:55;15.80;99.90
47382;DHT22;33128;51.580;5.170;2022-09-28T12:24:00;15.90;99.90
47382;DHT22;33128;51.580;5.170;2022-09-28T12:26:30;15.90;99.90
47382;DHT22;33128;51.580;5.170;2022-09-28T12:28:57;15.90;99.90
47382;DHT22;33128;51.580;5.170;2022-09-28T12:31:27;15.90;99.90
47382;DHT22;33128;51.580;5.170;2022-09-28T12:33:56;16.00;99.90
47382;DHT22;33128;51.580;5.170;2022-09-28T12:41:40;16.10;99.90
47382;DHT22;33128;51.580;5.170;2022-09-28T12:59:38;16.40;99.90
47382;DHT22;33128;51.580;5.170;2022-09-28T13:09:29;16.70;99.90
47382;DHT22;33128;51.580;5.170;2022-09-28T13:17:20;16.60;99.90
47382;DHT22;33128;51.580;5.170;2022-09-28T13:19:57;16.70;99.90
47382;DHT22;33128;51.580;5.170;2022-09-28T13:24:55;16.90;99.90
47382;DHT22;33128;51.580;5.170;2022-09-28T13:27:28;17.00;99.90
47382;DHT22;33128;51.580;5.170;2022-09-28T13:29:59;17.00;99.90
47382;DHT22;33128;51.580;5.170;2022-09-28T13:32:25;17.00;99.90
47382;DHT22;33128;51.580;5.170;2022-09-28T13:34:54;17.00;99.90
47382;DHT22;33128;51.580;5.170;2022-09-28T13:37:21;17.10;99.90
47382;DHT22;33128;51.580;5.170;2022-09-28T13:39:49;17.00;99.90
47382;DHT22;33128;51.580;5.170;2022-09-28T13:50:17;17.00;99.90
47382;DHT22;33128;51.580;5.170;2022-09-28T13:52:46;17.00;99.90
47382;DHT22;33128;51.580;5.170;2022-09-28T13:55:32;16.90;99.90
47382;DHT22;33128;51.580;5.170;2022-09-28T13:58:02;16.90;99.90
47382;DHT22;33128;51.580;5.170;2022-09-28T14:03:03;17.00;99.90
47382;DHT22;33128;51.580;5.170;2022-09-28T14:05:45;17.00;99.90
47382;DHT22;33128;51.580;5.170;2022-09-28T14:08:23;17.10;99.90
47382;DHT22;33128;51.580;5.170;2022-09-28T14:10:51;17.10;99.90
47382;DHT22;33128;51.580;5.170;2022-09-28T14:18:43;17.30;99.90
47382;DHT22;33128;51.580;5.170;2022-09-28T14:29:19;17.40;99.90
47382;DHT22;33128;51.580;5.170;2022-09-28T14:31:51;17.40;99.90
47382;DHT22;33128;51.580;5.170;2022-09-28T14:37:24;17.50;99.90
47382;DHT22;33128;51.580;5.170;2022-09-28T14:40:23;17.50;99.90
47382;DHT22;33128;51.580;5.170;2022-09-28T14:53:52;17.60;99.90
47382;DHT22;33128;51.580;5.170;2022-09-28T14:56:19;17.60;99.90
47382;DHT22;33128;51.580;5.170;2022-09-28T14:58:44;17.60;99.90
47382;DHT22;33128;51.580;5.170;2022-09-28T15:01:12;17.70;99.90
47382;DHT22;33128;51.580;5.170;2022-09-28T15:03:41;17.70;99.90
47382;DHT22;33128;51.580;5.170;2022-09-28T15:06:13;17.70;99.90
47382;DHT22;33128;51.580;5.170;2022-09-28T15:08:40;17.70;99.90
47382;DHT22;33128;51.580;5.170;2022-09-28T15:11:08;17.80;99.90
47382;DHT22;33128;51.580;5.170;2022-09-28T15:13:35;17.80;99.90
47382;DHT22;33128;51.580;5.170;2022-09-28T15:16:03;17.80;99.90
47382;DHT22;33128;51.580;5.170;2022-09-28T15:21:17;17.80;99.90
47382;DHT22;33128;51.580;5.170;2022-09-28T15:23:43;17.80;99.90
47382;DHT22;33128;51.580;5.170;2022-09-28T15:26:27;17.80;99.90
47382;DHT22;33128;51.580;5.170;2022-09-28T15:28:53;17.80;99.90
47382;DHT22;33128;51.580;5.170;2022-09-28T15:31:20;17.80;99.90
47382;DHT22;33128;51.580;5.170;2022-09-28T15:33:46;17.80;99.90
47382;DHT22;33128;51.580;5.170;2022-09-28T15:36:40;17.80;99.90
47382;DHT22;33128;51.580;5.170;2022-09-28T15:39:11;17.70;99.90
47382;DHT22;33128;51.580;5.170;2022-09-28T15:41:37;17.70;99.90
47382;DHT22;33128;51.580;5.170;2022-09-28T15:46:28;17.70;99.90
47382;DHT22;33128;51.580;5.170;2022-09-28T15:48:55;17.70;99.90
47382;DHT22;33128;51.580;5.170;2022-09-28T15:51:23;17.70;99.90
47382;DHT22;33128;51.580;5.170;2022-09-28T15:56:28;17.70;99.90
47382;DHT22;33128;51.580;5.170;2022-09-28T15:59:07;17.60;99.90
47382;DHT22;33128;51.580;5.170;2022-09-28T16:01:34;17.70;99.90
47382;DHT22;33128;51.580;5.170;2022-09-28T16:07:02;17.60;99.90
47382;DHT22;33128;51.580;5.170;2022-09-28T16:09:31;17.60;99.90
47382;DHT22;33128;51.580;5.170;2022-09-28T16:11:57;17.60;99.90
47382;DHT22;33128;51.580;5.170;2022-09-28T16:14:23;17.50;99.90
47382;DHT22;33128;51.580;5.170;2022-09-28T16:16:50;17.50;99.90
47382;DHT22;33128;51.580;5.170;2022-09-28T16:19:27;17.50;99.90
47382;DHT22;33128;51.580;5.170;2022-09-28T16:22:00;17.40;99.90
47382;DHT22;33128;51.580;5.170;2022-09-28T16:24:35;17.40;99.90
47382;DHT22;33128;51.580;5.170;2022-09-28T16:27:03;17.30;99.90
47382;DHT22;33128;51.580;5.170;2022-09-28T16:29:33;17.30;99.90
47382;DHT22;33128;51.580;5.170;2022-09-28T16:34:48;17.20;99.90
47382;DHT22;33128;51.580;5.170;2022-09-28T16:37:28;17.10;99.90
47382;DHT22;33128;51.580;5.170;2022-09-28T16:39:55;17.10;99.90
47382;DHT22;33128;51.580;5.170;2022-09-28T16:42:21;17.10;99.90
47382;DHT22;33128;51.580;5.170;2022-09-28T16:44:47;17.00;99.90
47382;DHT22;33128;51.580;5.170;2022-09-28T16:47:12;17.00;99.90
47382;DHT22;33128;51.580;5.170;2022-09-28T16:49:40;16.90;99.90
47382;DHT22;33128;51.580;5.170;2022-09-28T16:52:14;16.90;99.90
47382;DHT22;33128;51.580;5.170;2022-09-28T16:55:03;16.80;99.90
47382;DHT22;33128;51.580;5.170;2022-09-28T16:57:49;16.80;99.90
47382;DHT22;33128;51.580;5.170;2022-09-28T17:02:45;16.70;99.90
47382;DHT22;33128;51.580;5.170;2022-09-28T17:05:12;16.60;99.90
47382;DHT22;33128;51.580;5.170;2022-09-28T17:07:44;16.60;99.90
47382;DHT22;33128;51.580;5.170;2022-09-28T17:12:40;16.50;99.90
47382;DHT22;33128;51.580;5.170;2022-09-28T17:15:06;16.50;99.90
47382;DHT22;33128;51.580;5.170;2022-09-28T17:17:32;16.40;99.90
47382;DHT22;33128;51.580;5.170;2022-09-28T17:19:58;16.40;99.90
47382;DHT22;33128;51.580;5.170;2022-09-28T17:22:23;16.40;99.90
47382;DHT22;33128;51.580;5.170;2022-09-28T17:24:49;16.30;99.90
47382;DHT22;33128;51.580;5.170;2022-09-28T17:27:21;16.30;99.90
47382;DHT22;33128;51.580;5.170;2022-09-28T17:29:49;16.20;99.90
47382;DHT22;33128;51.580;5.170;2022-09-28T17:32:17;16.20;99.90
47382;DHT22;33128;51.580;5.170;2022-09-28T17:34:45;16.20;99.90
47382;DHT22;33128;51.580;5.170;2022-09-28T17:37:11;16.10;99.90
47382;DHT22;33128;51.580;5.170;2022-09-28T17:39:37;16.10;99.90
47382;DHT22;33128;51.580;5.170;2022-09-28T17:42:06;16.10;99.90
47382;DHT22;33128;51.580;5.170;2022-09-28T17:44:31;16.00;99.90
47382;DHT22;33128;51.580;5.170;2022-09-28T17:46:57;16.00;99.90
47382;DHT22;33128;51.580;5.170;2022-09-28T17:49:25;15.90;99.90
47382;DHT22;33128;51.580;5.170;2022-09-28T17:51:53;15.90;99.90
47382;DHT22;33128;51.580;5.170;2022-09-28T17:54:19;15.80;99.90
47382;DHT22;33128;51.580;5.170;2022-09-28T17:56:46;15.80;99.90
47382;DHT22;33128;51.580;5.170;2022-09-28T17:59:12;15.80;99.90
47382;DHT22;33128;51.580;5.170;2022-09-28T18:01:38;15.80;99.90
47382;DHT22;33128;51.580;5.170;2022-09-28T18:04:05;15.70;99.90
47382;DHT22;33128;51.580;5.170;2022-09-28T18:06:32;15.70;99.90
47382;DHT22;33128;51.580;5.170;2022-09-28T18:09:01;15.70;99.90
47382;DHT22;33128;51.580;5.170;2022-09-28T18:11:27;15.60;99.90
47382;DHT22;33128;51.580;5.170;2022-09-28T18:13:55;15.60;99.90
47382;DHT22;33128;51.580;5.170;2022-09-28T18:16:21;15.60;99.90
47382;DHT22;33128;51.580;5.170;2022-09-28T18:18:47;15.60;99.90
47382;DHT22;33128;51.580;5.170;2022-09-28T18:21:15;15.50;99.90
47382;DHT22;33128;51.580;5.170;2022-09-28T18:23:40;15.50;99.90
47382;DHT22;33128;51.580;5.170;2022-09-28T18:26:10;15.50;99.90
47382;DHT22;33128;51.580;5.170;2022-09-28T18:28:36;15.50;99.90
47382;DHT22;33128;51.580;5.170;2022-09-28T18:31:08;15.40;99.90
47382;DHT22;33128;51.580;5.170;2022-09-28T18:33:34;15.40;99.90
47382;DHT22;33128;51.580;5.170;2022-09-28T18:35:59;15.40;99.90
47382;DHT22;33128;51.580;5.170;2022-09-28T18:38:25;15.40;99.90
47382;DHT22;33128;51.580;5.170;2022-09-28T18:40:50;15.30;99.90
47382;DHT22;33128;51.580;5.170;2022-09-28T18:43:17;15.30;99.90
47382;DHT22;33128;51.580;5.170;2022-09-28T18:45:43;15.30;99.90
47382;DHT22;33128;51.580;5.170;2022-09-28T18:48:08;15.30;99.90